Time;durP1;ratioP1;P1;durP2;ratioP2;P2;SDS_P1;SDS_P2;PMS_P1;PMS_P2;Temp;Humidity;BMP_temperature;BMP_pressure;BME280_temperature;BME280_humidity;BME280_pressure;Samples;Min_cycle;Max_cycle;Signal;HPM_P1;HPM_P2
2023/03/27 00:00:19;;;;;;;;;;;;;;;19.51;42.07;99982.66;101833;1314;62280;-82
2023/03/27 00:02:48;;;;;;;;;;;;;;;19.51;42.17;99969.31;101849;1314;62233;-82
2023/03/27 00:05:19;;;;;;;;;;;;;;;19.51;42.22;99965.90;101791;1309;76441;-83
2023/03/27 00:07:54;;;;;;;;;;;;;;;19.50;42.24;99958.96;101743;1308;62238;-83
2023/03/27 00:10:21;;;;;;;;;;;;;;;19.50;42.18;99954.53;101924;1309;62203;-83
2023/03/27 00:12:47;;;;;;;;;;;;;;;19.50;42.24;99949.36;101815;1310;73257;-83
2023/03/27 00:15:15;;;;;;;;;;;;;;;19.50;42.20;99946.70;101853;1308;62874;-83
2023/03/27 00:17:48;;;;;;;;;;;;;;;19.49;42.22;99947.80;101751;1315;62231;-83
2023/03/27 00:20:16;;;;;;;;;;;;;;;19.49;42.27;99949.41;101936;1315;62247;-83
2023/03/27 00:22:42;;;;;;;;;;;;;;;19.50;42.22;99950.10;101771;1316;72423;-82
2023/03/27 00:25:09;;;;;;;;;;;;;;;19.50;42.25;99945.29;101614;1316;62352;-83
2023/03/27 00:27:34;;;;;;;;;;;;;;;19.49;42.20;99945.13;101620;1312;62231;-84
2023/03/27 00:30:00;;;;;;;;;;;;;;;19.50;42.23;99939.58;101683;1316;62151;-83
2023/03/27 00:32:26;;;;;;;;;;;;;;;19.49;42.25;99938.74;101743;1312;62245;-83
2023/03/27 00:34:51;;;;;;;;;;;;;;;19.49;42.18;99934.82;101673;1314;62321;-83
2023/03/27 00:37:17;;;;;;;;;;;;;;;19.48;42.23;99930.94;101654;1317;62152;-82
2023/03/27 00:39:42;;;;;;;;;;;;;;;19.48;42.20;99925.58;101564;1314;62370;-83
2023/03/27 00:42:10;;;;;;;;;;;;;;;19.48;42.28;99919.90;101815;1314;62338;-82
2023/03/27 00:44:36;;;;;;;;;;;;;;;19.48;42.21;99921.67;101630;1316;72266;-83
2023/03/27 00:47:02;;;;;;;;;;;;;;;19.48;42.27;99922.40;101380;1311;62503;-82
2023/03/27 00:49:28;;;;;;;;;;;;;;;19.48;42.18;99916.00;101538;1317;62270;-82
2023/03/27 00:51:56;;;;;;;;;;;;;;;19.48;42.20;99911.37;101684;1315;62341;-83
2023/03/27 00:54:25;;;;;;;;;;;;;;;19.47;42.21;99906.75;101622;1310;72585;-83
2023/03/27 00:56:54;;;;;;;;;;;;;;;19.47;42.22;99904.42;101852;1314;75688;-83
2023/03/27 00:59:20;;;;;;;;;;;;;;;19.47;42.19;99905.87;101855;1308;62494;-83
2023/03/27 01:01:46;;;;;;;;;;;;;;;19.47;42.27;99905.88;101750;1311;62353;-82
2023/03/27 01:04:12;;;;;;;;;;;;;;;19.47;42.24;99910.52;101751;1313;63354;-82
2023/03/27 01:06:37;;;;;;;;;;;;;;;19.47;42.20;99917.30;101879;1314;62219;-84
2023/03/27 01:09:03;;;;;;;;;;;;;;;19.47;42.28;99916.91;101794;1314;62252;-84
2023/03/27 01:11:47;;;;;;;;;;;;;;;19.47;42.17;99910.20;101744;1314;62171;-83
2023/03/27 01:14:32;;;;;;;;;;;;;;;19.46;42.17;99899.85;101859;1310;73578;-83
2023/03/27 01:17:09;;;;;;;;;;;;;;;19.46;42.00;99887.20;101825;1311;76418;-83
2023/03/27 01:19:45;;;;;;;;;;;;;;;19.46;42.24;99875.28;101821;1314;62254;-83
2023/03/27 01:22:17;;;;;;;;;;;;;;;19.46;42.19;99867.41;101842;1314;63274;-82
2023/03/27 01:24:54;;;;;;;;;;;;;;;19.46;42.23;99862.61;101852;1310;72649;-83
2023/03/27 01:27:41;;;;;;;;;;;;;;;19.45;42.24;99858.02;101964;1310;75397;-82
2023/03/27 01:30:18;;;;;;;;;;;;;;;19.46;42.16;99856.74;101901;1315;62187;-83
2023/03/27 01:32:48;;;;;;;;;;;;;;;19.46;42.19;99853.89;101935;1314;62261;-83
2023/03/27 01:35:34;;;;;;;;;;;;;;;19.45;42.20;99851.61;101794;1314;72558;-82
2023/03/27 01:38:05;;;;;;;;;;;;;;;19.46;42.19;99855.33;101844;1314;75467;-83
2023/03/27 01:40:47;;;;;;;;;;;;;;;19.45;42.27;99850.02;101839;1309;62250;-83
2023/03/27 01:43:32;;;;;;;;;;;;;;;19.45;42.22;99847.89;101825;1308;62280;-83
2023/03/27 01:46:27;;;;;;;;;;;;;;;19.45;42.19;99853.97;101824;1310;73647;-83
2023/03/27 01:49:13;;;;;;;;;;;;;;;19.45;42.24;99861.97;101724;1314;75281;-82
2023/03/27 01:51:40;;;;;;;;;;;;;;;19.45;42.27;99858.23;101835;1308;62139;-83
2023/03/27 01:54:17;;;;;;;;;;;;;;;19.45;42.24;99857.33;101816;1313;62148;-83
2023/03/27 01:56:50;;;;;;;;;;;;;;;19.45;42.20;99845.55;101811;1308;73392;-83
2023/03/27 01:59:17;;;;;;;;;;;;;;;19.45;42.24;99835.73;101870;1312;76419;-83
2023/03/27 02:01:45;;;;;;;;;;;;;;;19.45;42.21;99835.03;101773;1308;62252;-84
2023/03/27 02:04:13;;;;;;;;;;;;;;;19.45;42.22;99849.11;101764;1314;62577;-82
2023/03/27 02:06:40;;;;;;;;;;;;;;;19.45;42.17;99863.77;101818;1309;73491;-83
2023/03/27 02:09:13;;;;;;;;;;;;;;;19.45;42.15;99865.19;101884;1308;75378;-82
2023/03/27 02:11:43;;;;;;;;;;;;;;;19.44;42.21;99858.08;101822;1311;62075;-82
2023/03/27 02:14:11;;;;;;;;;;;;;;;19.44;42.13;99855.59;101898;1308;62238;-83
2023/03/27 02:16:41;;;;;;;;;;;;;;;19.45;42.16;99855.40;101888;1310;71644;-83
2023/03/27 02:19:13;;;;;;;;;;;;;;;19.44;42.13;99860.77;101792;1310;76481;-82
2023/03/27 02:21:40;;;;;;;;;;;;;;;19.43;42.17;99861.55;101841;1314;63213;-82
2023/03/27 02:24:06;;;;;;;;;;;;;;;19.43;42.14;99859.92;101845;1312;62078;-83
2023/03/27 02:26:32;;;;;;;;;;;;;;;19.43;42.17;99852.80;101815;1314;63166;-84
2023/03/27 02:29:16;;;;;;;;;;;;;;;19.43;42.15;99849.78;101777;1309;62159;-84
2023/03/27 02:32:14;;;;;;;;;;;;;;;19.43;42.09;99842.65;101793;1309;62584;-83
2023/03/27 02:34:49;;;;;;;;;;;;;;;19.42;42.18;99838.23;101359;1315;62325;-83
2023/03/27 02:37:21;;;;;;;;;;;;;;;19.42;42.18;99828.27;101319;1317;72575;-82
2023/03/27 02:39:51;;;;;;;;;;;;;;;19.42;42.16;99823.98;101264;1314;76568;-83
2023/03/27 02:42:17;;;;;;;;;;;;;;;19.42;42.12;99822.77;101261;1321;62270;-83
2023/03/27 02:45:16;;;;;;;;;;;;;;;19.42;42.16;99814.89;101253;1317;62271;-83
2023/03/27 02:47:44;;;;;;;;;;;;;;;19.41;42.15;99812.63;100809;1330;72648;-83
2023/03/27 02:50:19;;;;;;;;;;;;;;;19.41;42.11;99808.33;100911;1324;76574;-83
2023/03/27 02:52:51;;;;;;;;;;;;;;;19.41;42.20;99801.05;100839;1324;62701;-80
2023/03/27 02:55:21;;;;;;;;;;;;;;;19.41;42.15;99800.69;100846;1326;62270;-82
2023/03/27 02:57:48;;;;;;;;;;;;;;;19.41;42.16;99796.03;100742;1327;71271;-82
2023/03/27 03:00:26;;;;;;;;;;;;;;;19.41;42.20;99794.09;100770;1322;76324;-83
2023/03/27 03:03:12;;;;;;;;;;;;;;;19.41;42.19;99789.13;100820;1322;62404;-83
2023/03/27 03:05:38;;;;;;;;;;;;;;;19.41;42.20;99780.56;100865;1326;62172;-83
2023/03/27 03:08:04;;;;;;;;;;;;;;;19.40;42.13;99770.05;100846;1326;62378;-83
2023/03/27 03:10:30;;;;;;;;;;;;;;;19.41;42.19;99770.77;100999;1321;62470;-83
2023/03/27 03:12:55;;;;;;;;;;;;;;;19.41;42.18;99768.96;101147;1317;63572;-82
2023/03/27 03:15:24;;;;;;;;;;;;;;;19.41;42.13;99762.36;101078;1317;62404;-83
2023/03/27 03:17:50;;;;;;;;;;;;;;;19.40;42.13;99753.48;101080;1318;62455;-83
2023/03/27 03:20:16;;;;;;;;;;;;;;;19.40;42.13;99741.90;101102;1318;63489;-83
2023/03/27 03:22:42;;;;;;;;;;;;;;;19.40;42.21;99738.52;101108;1308;63824;-83
2023/03/27 03:25:09;;;;;;;;;;;;;;;19.40;42.12;99741.92;101809;1314;62221;-83
2023/03/27 03:27:36;;;;;;;;;;;;;;;19.40;42.18;99747.23;101797;1308;62152;-82
2023/03/27 03:30:03;;;;;;;;;;;;;;;19.40;42.18;99741.92;101864;1308;62293;-83
2023/03/27 03:32:29;;;;;;;;;;;;;;;19.40;42.11;99743.36;101891;1314;62171;-83
2023/03/27 03:34:55;;;;;;;;;;;;;;;19.39;42.18;99734.11;101791;1308;62302;-83
2023/03/27 03:37:27;;;;;;;;;;;;;;;19.39;42.06;99732.55;101858;1308;63411;-82
2023/03/27 03:39:54;;;;;;;;;;;;;;;19.38;41.98;99734.95;101818;1314;76532;-82
2023/03/27 03:42:20;;;;;;;;;;;;;;;19.36;41.92;99738.29;101808;1314;62117;-82
2023/03/27 03:44:45;;;;;;;;;;;;;;;19.35;41.89;99747.45;101772;1314;62164;-82
2023/03/27 03:47:11;;;;;;;;;;;;;;;19.34;41.91;99747.36;101891;1318;62225;-83
2023/03/27 03:49:36;;;;;;;;;;;;;;;19.32;41.85;99744.52;101781;1314;63406;-83
2023/03/27 03:52:03;;;;;;;;;;;;;;;19.30;41.72;99745.20;101896;1314;62143;-82
2023/03/27 03:54:28;;;;;;;;;;;;;;;19.29;41.66;99744.02;101758;1308;62261;-84
2023/03/27 03:56:54;;;;;;;;;;;;;;;19.29;41.62;99734.08;101946;1308;63049;-82
2023/03/27 03:59:20;;;;;;;;;;;;;;;19.28;41.65;99731.13;101797;1314;62190;-85
2023/03/27 04:01:46;;;;;;;;;;;;;;;19.27;41.54;99729.23;101865;1314;62207;-82
2023/03/27 04:04:13;;;;;;;;;;;;;;;19.24;41.42;99721.24;101864;1308;62278;-83
2023/03/27 04:06:39;;;;;;;;;;;;;;;19.19;41.32;99715.89;101948;1308;62245;-83
2023/03/27 04:09:06;;;;;;;;;;;;;;;19.14;41.13;99719.36;101853;1314;62373;-83
2023/03/27 04:11:32;;;;;;;;;;;;;;;19.09;40.83;99720.34;101829;1309;62309;-83
2023/03/27 04:13:58;;;;;;;;;;;;;;;19.03;40.69;99728.22;101877;1314;62203;-82
2023/03/27 04:16:23;;;;;;;;;;;;;;;18.99;40.58;99729.28;101925;1308;62321;-85
2023/03/27 04:18:54;;;;;;;;;;;;;;;18.96;40.34;99726.54;101811;1308;62251;-84
2023/03/27 04:21:19;;;;;;;;;;;;;;;18.91;40.27;99729.00;101896;1314;72373;-84
2023/03/27 04:23:47;;;;;;;;;;;;;;;18.88;40.12;99727.63;101879;1308;62276;-83
2023/03/27 04:26:14;;;;;;;;;;;;;;;18.85;39.88;99724.10;101803;1308;62293;-84
2023/03/27 04:28:40;;;;;;;;;;;;;;;18.82;39.76;99724.31;101727;1308;63012;-83
2023/03/27 04:31:06;;;;;;;;;;;;;;;18.80;39.65;99729.33;101922;1308;62180;-84
2023/03/27 04:33:45;;;;;;;;;;;;;;;18.78;39.61;99729.46;101950;1310;62226;-83
2023/03/27 04:36:13;;;;;;;;;;;;;;;18.75;39.44;99728.32;101788;1308;63343;-83
2023/03/27 04:38:39;;;;;;;;;;;;;;;18.70;39.19;99725.98;101778;1308;62190;-84
2023/03/27 04:41:05;;;;;;;;;;;;;;;18.67;39.12;99722.31;101851;1309;62225;-84
2023/03/27 04:43:31;;;;;;;;;;;;;;;18.64;38.96;99722.33;101831;1314;62264;-83
2023/03/27 04:45:57;;;;;;;;;;;;;;;18.61;38.92;99717.42;101829;1308;62296;-85
2023/03/27 04:48:22;;;;;;;;;;;;;;;18.58;38.84;99717.98;101864;1314;62142;-83
2023/03/27 04:50:50;;;;;;;;;;;;;;;18.56;38.81;99710.15;102032;1314;62284;-83
2023/03/27 04:53:16;;;;;;;;;;;;;;;18.54;38.67;99701.60;102035;1308;73600;-84
2023/03/27 04:55:45;;;;;;;;;;;;;;;18.51;38.49;99698.06;102032;1309;62212;-83
2023/03/27 04:58:11;;;;;;;;;;;;;;;18.50;38.47;99700.11;101948;1308;62325;-84
2023/03/27 05:00:37;;;;;;;;;;;;;;;18.47;38.29;99694.98;102151;1308;62070;-84
2023/03/27 05:03:03;;;;;;;;;;;;;;;18.43;38.23;99687.07;101921;1314;62148;-83
2023/03/27 05:05:28;;;;;;;;;;;;;;;18.42;38.22;99683.56;102149;1308;62244;-84
2023/03/27 05:07:54;;;;;;;;;;;;;;;18.43;38.35;99679.45;102267;1311;62388;-83
2023/03/27 05:10:20;;;;;;;;;;;;;;;18.43;38.34;99673.36;102184;1308;62206;-82
2023/03/27 05:12:46;;;;;;;;;;;;;;;18.42;38.24;99667.39;102264;1308;62108;-82
2023/03/27 05:15:12;;;;;;;;;;;;;;;18.39;38.10;99666.37;102335;1308;62255;-83
2023/03/27 05:17:41;;;;;;;;;;;;;;;18.40;38.19;99663.80;102188;1308;62357;-83
2023/03/27 05:20:07;;;;;;;;;;;;;;;18.43;38.15;99660.20;102464;1311;62169;-81
2023/03/27 05:22:55;;;;;;;;;;;;;;;18.46;38.16;99659.26;102703;1308;62232;-81
2023/03/27 05:25:21;;;;;;;;;;;;;;;18.50;38.19;99658.95;102291;1319;74039;-82
2023/03/27 05:27:47;;;;;;;;;;;;;;;18.53;38.21;99650.69;102371;1316;62291;-81
2023/03/27 05:30:16;;;;;;;;;;;;;;;18.55;38.23;99645.16;102120;1320;62255;-81
2023/03/27 05:32:47;;;;;;;;;;;;;;;18.57;38.20;99639.88;101989;1314;62214;-81
2023/03/27 05:35:12;;;;;;;;;;;;;;;18.53;38.14;99634.52;102612;1316;72534;-81
2023/03/27 05:37:38;;;;;;;;;;;;;;;18.48;38.11;99629.55;102291;1316;62178;-81
2023/03/27 05:40:04;;;;;;;;;;;;;;;18.45;38.19;99628.90;102458;1316;62225;-81
2023/03/27 05:42:30;;;;;;;;;;;;;;;18.43;38.14;99628.84;103080;1316;60633;-81
2023/03/27 05:44:56;;;;;;;;;;;;;;;18.40;38.10;99628.70;102290;1319;62369;-84
2023/03/27 05:47:22;;;;;;;;;;;;;;;18.41;38.20;99632.05;102339;1316;62181;-83
2023/03/27 05:49:48;;;;;;;;;;;;;;;18.41;38.20;99626.15;102092;1317;82138;-83
2023/03/27 05:52:14;;;;;;;;;;;;;;;18.40;38.07;99621.18;102198;1319;62331;-85
2023/03/27 05:54:40;;;;;;;;;;;;;;;18.38;38.05;99614.41;102114;1315;60861;-84
2023/03/27 05:57:06;;;;;;;;;;;;;;;18.33;37.95;99611.83;102327;1319;62290;-84
2023/03/27 05:59:33;;;;;;;;;;;;;;;18.21;38.06;99605.30;102163;1317;62150;-81
2023/03/27 06:01:59;;;;;;;;;;;;;;;18.17;38.14;99604.50;102616;1308;62254;-81
2023/03/27 06:04:24;;;;;;;;;;;;;;;18.16;38.10;99599.29;103053;1308;62223;-81
2023/03/27 06:06:49;;;;;;;;;;;;;;;18.12;38.05;99589.73;102886;1311;62322;-82
2023/03/27 06:09:15;;;;;;;;;;;;;;;18.12;38.17;99579.63;103057;1308;62136;-82
2023/03/27 06:11:42;;;;;;;;;;;;;;;18.11;38.02;99577.23;102900;1309;62693;-81
2023/03/27 06:14:31;;;;;;;;;;;;;;;18.09;38.00;99574.88;103024;1308;62133;-81
2023/03/27 06:16:56;;;;;;;;;;;;;;;18.05;37.90;99577.84;102405;1317;62414;-81
2023/03/27 06:19:26;;;;;;;;;;;;;;;17.97;37.90;99572.94;102637;1314;62140;-83
2023/03/27 06:21:52;;;;;;;;;;;;;;;17.84;37.76;99572.49;102435;1317;75511;-83
2023/03/27 06:24:17;;;;;;;;;;;;;;;17.69;37.83;99570.54;102215;1317;62351;-83
2023/03/27 06:26:54;;;;;;;;;;;;;;;17.67;37.91;99565.08;102462;1316;62076;-84
2023/03/27 06:29:20;;;;;;;;;;;;;;;17.66;37.91;99559.95;102746;1317;72526;-84
2023/03/27 06:31:46;;;;;;;;;;;;;;;17.72;37.94;99551.14;102764;1316;62366;-83
2023/03/27 06:34:13;;;;;;;;;;;;;;;17.81;37.98;99546.71;102531;1319;62312;-83
2023/03/27 06:36:39;;;;;;;;;;;;;;;17.90;38.00;99540.16;102562;1315;60809;-84
2023/03/27 06:39:05;;;;;;;;;;;;;;;17.99;38.04;99528.27;102377;1317;62342;-83
2023/03/27 06:41:31;;;;;;;;;;;;;;;18.06;37.99;99525.76;102347;1316;62472;-84
2023/03/27 06:43:57;;;;;;;;;;;;;;;18.14;38.01;99519.46;102285;1316;62295;-83
2023/03/27 06:46:22;;;;;;;;;;;;;;;18.21;37.85;99512.69;102417;1314;62146;-84
2023/03/27 06:48:50;;;;;;;;;;;;;;;18.27;37.85;99510.90;102416;1314;62400;-84
2023/03/27 06:51:21;;;;;;;;;;;;;;;18.32;37.88;99508.39;102288;1319;72791;-82
2023/03/27 06:53:48;;;;;;;;;;;;;;;18.35;37.78;99505.35;102720;1309;76360;-81
2023/03/27 06:56:13;;;;;;;;;;;;;;;18.23;37.66;99490.39;103390;1313;60587;-81
2023/03/27 06:58:39;;;;;;;;;;;;;;;18.11;37.62;99484.83;103625;1308;62158;-81
2023/03/27 07:01:04;;;;;;;;;;;;;;;17.90;37.59;99477.13;103165;1310;62070;-83
2023/03/27 07:03:30;;;;;;;;;;;;;;;17.58;37.52;99470.01;102794;1309;759808;-83
2023/03/27 07:05:55;;;;;;;;;;;;;;;17.41;37.56;99469.55;103473;1308;62268;-83
2023/03/27 07:08:21;;;;;;;;;;;;;;;17.37;37.72;99463.59;103228;1309;62188;-83
2023/03/27 07:10:47;;;;;;;;;;;;;;;17.37;37.79;99458.08;103014;1308;62261;-83
2023/03/27 07:13:14;;;;;;;;;;;;;;;17.38;37.75;99450.69;103042;1314;60822;-84
2023/03/27 07:15:40;;;;;;;;;;;;;;;17.43;37.89;99443.73;103062;1308;60336;-83
2023/03/27 07:18:05;;;;;;;;;;;;;;;17.52;37.91;99441.13;103010;1308;62251;-83
2023/03/27 07:20:32;;;;;;;;;;;;;;;17.59;37.85;99435.60;102952;1308;62562;-83
2023/03/27 07:22:57;;;;;;;;;;;;;;;17.63;37.75;99431.91;103389;1308;62110;-83
2023/03/27 07:25:23;;;;;;;;;;;;;;;17.69;38.03;99427.92;103383;1313;60188;-82
2023/03/27 07:27:49;;;;;;;;;;;;;;;17.76;38.04;99424.48;103267;1311;76376;-83
2023/03/27 07:30:15;;;;;;;;;;;;;;;17.83;38.01;99419.27;103436;1308;60555;-83
2023/03/27 07:32:41;;;;;;;;;;;;;;;17.91;37.97;99410.88;103243;1309;62174;-83
2023/03/27 07:35:07;;;;;;;;;;;;;;;17.98;38.00;99402.85;103003;1308;62206;-83
2023/03/27 07:37:34;;;;;;;;;;;;;;;18.05;37.94;99398.70;103173;1311;62242;-83
2023/03/27 07:40:00;;;;;;;;;;;;;;;18.10;37.87;99393.89;103152;1308;62144;-82
2023/03/27 07:42:25;;;;;;;;;;;;;;;18.12;37.88;99395.36;103006;1308;62140;-84
2023/03/27 07:44:51;;;;;;;;;;;;;;;18.06;37.72;99396.34;103061;1311;62249;-83
2023/03/27 07:47:17;;;;;;;;;;;;;;;18.02;37.67;99391.11;103280;1308;62377;-83
2023/03/27 07:49:43;;;;;;;;;;;;;;;17.99;37.62;99389.11;103279;1308;76521;-84
2023/03/27 07:52:08;;;;;;;;;;;;;;;17.96;37.57;99389.33;102985;1308;62286;-83
2023/03/27 07:54:34;;;;;;;;;;;;;;;17.96;37.72;99387.89;102983;1309;62255;-83
2023/03/27 07:57:00;;;;;;;;;;;;;;;18.01;37.74;99385.17;103142;1308;62085;-83
2023/03/27 07:59:26;;;;;;;;;;;;;;;18.05;37.63;99380.94;103083;1308;62177;-84
2023/03/27 08:01:53;;;;;;;;;;;;;;;18.05;37.64;99379.80;103529;1308;62119;-82
2023/03/27 08:04:19;;;;;;;;;;;;;;;18.01;37.50;99376.77;103446;1308;62104;-82
2023/03/27 08:06:45;;;;;;;;;;;;;;;17.95;37.60;99369.80;103307;1308;62242;-83
2023/03/27 08:09:12;;;;;;;;;;;;;;;17.95;37.56;99368.89;103250;1308;72603;-82
2023/03/27 08:11:39;;;;;;;;;;;;;;;17.88;37.48;99364.08;103042;1309;75710;-82
2023/03/27 08:14:08;;;;;;;;;;;;;;;17.88;37.56;99362.66;103253;1308;62120;-83
2023/03/27 08:16:35;;;;;;;;;;;;;;;17.92;37.53;99357.89;104085;1308;60868;-83
2023/03/27 08:19:02;;;;;;;;;;;;;;;17.94;37.52;99358.27;102771;1308;72568;-83
2023/03/27 08:21:32;;;;;;;;;;;;;;;17.78;37.25;99357.05;103759;1308;76343;-82
2023/03/27 08:23:58;;;;;;;;;;;;;;;17.67;37.45;99351.17;102877;1311;61050;-83
2023/03/27 08:26:25;;;;;;;;;;;;;;;17.70;37.49;99345.77;102769;1308;62239;-83
2023/03/27 08:28:54;;;;;;;;;;;;;;;17.72;37.39;99342.02;102688;1308;74001;-83
2023/03/27 08:31:20;;;;;;;;;;;;;;;17.71;37.44;99341.08;102462;1309;76564;-83
2023/03/27 08:33:46;;;;;;;;;;;;;;;17.68;37.39;99335.47;102617;1308;60514;-83
2023/03/27 08:36:13;;;;;;;;;;;;;;;17.67;37.36;99326.82;102919;1308;62327;-82
2023/03/27 08:38:42;;;;;;;;;;;;;;;17.65;37.43;99318.98;102555;1308;62174;-83
2023/03/27 08:41:23;;;;;;;;;;;;;;;17.64;37.41;99312.96;102747;1307;75500;-82
2023/03/27 08:43:49;;;;;;;;;;;;;;;17.67;37.45;99304.04;102651;1308;62225;-84
2023/03/27 08:46:16;;;;;;;;;;;;;;;17.69;37.44;99297.99;102692;1312;62249;-83
2023/03/27 08:48:43;;;;;;;;;;;;;;;17.72;37.43;99289.54;102945;1308;62185;-84
2023/03/27 08:51:11;;;;;;;;;;;;;;;17.71;37.48;99272.20;102690;1308;76530;-83
2023/03/27 08:53:48;;;;;;;;;;;;;;;17.78;37.57;99253.71;102865;1308;62122;-83
2023/03/27 08:56:13;;;;;;;;;;;;;;;17.85;37.71;99248.98;103028;1308;62223;-83
2023/03/27 08:58:39;;;;;;;;;;;;;;;17.92;37.86;99244.20;102816;1308;62331;-83
2023/03/27 09:01:14;;;;;;;;;;;;;;;17.96;37.93;99238.52;102773;1309;75560;-84
2023/03/27 09:03:46;;;;;;;;;;;;;;;17.97;37.90;99234.73;102934;1308;62044;-83
2023/03/27 09:06:20;;;;;;;;;;;;;;;17.92;37.89;99229.08;103091;1308;62049;-82
2023/03/27 09:08:51;;;;;;;;;;;;;;;17.85;37.98;99224.99;102683;1308;71542;-83
2023/03/27 09:11:32;;;;;;;;;;;;;;;17.84;37.92;99216.38;102544;1312;74131;-82
2023/03/27 09:13:58;;;;;;;;;;;;;;;17.82;38.06;99225.27;102821;1308;62172;-83
2023/03/27 09:16:27;;;;;;;;;;;;;;;17.82;38.03;99228.62;102924;1308;60771;-83
2023/03/27 09:19:00;;;;;;;;;;;;;;;17.82;38.03;99226.45;102788;1308;72398;-83
2023/03/27 09:21:32;;;;;;;;;;;;;;;17.85;38.13;99234.91;102781;1308;75489;-83
2023/03/27 09:23:57;;;;;;;;;;;;;;;17.86;38.07;99229.69;102829;1308;62156;-83
2023/03/27 09:26:26;;;;;;;;;;;;;;;17.88;38.16;99228.65;102682;1310;62307;-83
2023/03/27 09:28:59;;;;;;;;;;;;;;;17.93;38.22;99220.98;102845;1309;72567;-83
2023/03/27 09:31:25;;;;;;;;;;;;;;;18.00;38.24;99214.38;102640;1311;78270;-83
2023/03/27 09:33:51;;;;;;;;;;;;;;;18.05;38.23;99209.65;102850;1311;62090;-83
2023/03/27 09:36:16;;;;;;;;;;;;;;;18.12;38.27;99206.27;102606;1308;62149;-84
2023/03/27 09:38:45;;;;;;;;;;;;;;;18.16;38.17;99202.68;102445;1311;62114;-84
2023/03/27 09:41:14;;;;;;;;;;;;;;;18.20;38.22;99199.48;102691;1308;76290;-84
2023/03/27 09:43:55;;;;;;;;;;;;;;;18.24;38.28;99196.52;102722;1312;62232;-85
2023/03/27 09:46:21;;;;;;;;;;;;;;;18.27;38.28;99193.78;102458;1308;60759;-84
2023/03/27 09:48:56;;;;;;;;;;;;;;;18.30;38.34;99183.77;102350;1308;62200;-83
2023/03/27 09:51:35;;;;;;;;;;;;;;;18.31;38.24;99180.62;102336;1309;75259;-82
2023/03/27 09:54:02;;;;;;;;;;;;;;;18.33;38.30;99177.61;102528;1308;62015;-84
2023/03/27 09:56:28;;;;;;;;;;;;;;;18.36;38.32;99173.09;102161;1314;62090;-83
2023/03/27 09:58:54;;;;;;;;;;;;;;;18.39;38.31;99171.92;101948;1317;62422;-84
2023/03/27 10:01:29;;;;;;;;;;;;;;;18.42;38.30;99163.64;102123;1317;62393;-84
2023/03/27 10:03:56;;;;;;;;;;;;;;;18.41;38.22;99154.80;102029;1311;62441;-83
2023/03/27 10:06:46;;;;;;;;;;;;;;;18.40;38.27;99151.48;102182;1311;62436;-85
2023/03/27 10:09:22;;;;;;;;;;;;;;;18.43;38.35;99151.25;101615;1317;73953;-83
2023/03/27 10:11:51;;;;;;;;;;;;;;;18.46;38.37;99140.50;101440;1320;75649;-84
2023/03/27 10:14:18;;;;;;;;;;;;;;;18.49;38.45;99124.54;101923;1317;62149;-84
2023/03/27 10:16:44;;;;;;;;;;;;;;;18.50;38.40;99121.23;101950;1317;62739;-85
2023/03/27 10:19:20;;;;;;;;;;;;;;;18.46;38.41;99117.17;102214;1318;62259;-84
2023/03/27 10:21:46;;;;;;;;;;;;;;;18.40;38.50;99112.61;101905;1317;75201;-83
2023/03/27 10:24:25;;;;;;;;;;;;;;;18.36;38.62;99101.98;101563;1320;62180;-83
2023/03/27 10:27:17;;;;;;;;;;;;;;;18.34;38.73;99094.46;101611;1320;62114;-83
2023/03/27 10:29:43;;;;;;;;;;;;;;;18.39;38.77;99097.67;101169;1320;72658;-83
2023/03/27 10:32:09;;;;;;;;;;;;;;;18.39;38.76;99099.24;101482;1322;62291;-83
2023/03/27 10:34:40;;;;;;;;;;;;;;;18.39;38.86;99091.39;101262;1322;62136;-83
2023/03/27 10:37:20;;;;;;;;;;;;;;;18.42;38.92;99083.16;101616;1323;62243;-82
2023/03/27 10:39:46;;;;;;;;;;;;;;;18.45;38.97;99080.02;101268;1322;72575;-82
2023/03/27 10:42:12;;;;;;;;;;;;;;;18.48;39.05;99074.20;101382;1322;62236;-83
2023/03/27 10:44:38;;;;;;;;;;;;;;;18.52;39.13;99068.01;101204;1321;62376;-84
2023/03/27 10:47:04;;;;;;;;;;;;;;;18.54;39.17;99059.97;101662;1316;63073;-82
2023/03/27 10:49:30;;;;;;;;;;;;;;;18.57;39.21;99054.91;102123;1316;62440;-82
2023/03/27 10:52:13;;;;;;;;;;;;;;;18.60;39.29;99050.17;101839;1317;62238;-83
2023/03/27 10:54:46;;;;;;;;;;;;;;;18.62;39.33;99045.45;101880;1316;62095;-82
2023/03/27 10:57:36;;;;;;;;;;;;;;;18.58;39.32;99038.77;103828;1316;61293;-82
2023/03/27 11:00:09;;;;;;;;;;;;;;;18.60;39.64;99035.55;101888;1317;73741;-82
2023/03/27 11:02:53;;;;;;;;;;;;;;;18.63;39.69;99029.45;101847;1317;76591;-83
2023/03/27 11:05:29;;;;;;;;;;;;;;;18.60;39.66;99023.48;101935;1317;62238;-82
2023/03/27 11:07:54;;;;;;;;;;;;;;;18.61;39.78;99018.75;102809;1308;61335;-82
2023/03/27 11:10:21;;;;;;;;;;;;;;;18.65;39.85;99017.86;102571;1308;62132;-82
2023/03/27 11:12:52;;;;;;;;;;;;;;;18.69;40.01;99011.67;102464;1308;62251;-82
2023/03/27 11:15:20;;;;;;;;;;;;;;;18.73;40.13;99006.63;102197;1308;62301;-83
2023/03/27 11:17:57;;;;;;;;;;;;;;;18.79;40.29;99003.98;102542;1308;62070;-83
2023/03/27 11:20:30;;;;;;;;;;;;;;;18.84;40.54;98994.27;102376;1308;73584;-83
2023/03/27 11:22:57;;;;;;;;;;;;;;;18.89;40.71;98982.64;102168;1308;76609;-85
2023/03/27 11:25:53;;;;;;;;;;;;;;;18.94;40.94;98973.45;102323;1308;62179;-83
2023/03/27 11:28:52;;;;;;;;;;;;;;;18.99;40.99;98967.27;101463;1314;62128;-82
2023/03/27 11:31:47;;;;;;;;;;;;;;;19.04;41.28;98962.92;101167;1316;72310;-83
2023/03/27 11:34:24;;;;;;;;;;;;;;;19.07;41.43;98958.13;101077;1323;76382;-83
2023/03/27 11:36:52;;;;;;;;;;;;;;;19.10;41.57;98948.27;101284;1320;63572;-83
2023/03/27 11:39:40;;;;;;;;;;;;;;;19.13;41.67;98939.47;101233;1321;62238;-83
2023/03/27 11:42:25;;;;;;;;;;;;;;;19.14;41.87;98930.94;101109;1323;72484;-83
2023/03/27 11:44:50;;;;;;;;;;;;;;;19.16;41.94;98932.57;101326;1319;76694;-83
2023/03/27 11:47:19;;;;;;;;;;;;;;;19.18;42.02;98931.70;101142;1326;62203;-83
2023/03/27 11:50:15;;;;;;;;;;;;;;;19.19;42.14;98929.98;101373;1320;62158;-83
2023/03/27 11:53:00;;;;;;;;;;;;;;;19.20;42.20;98924.90;100838;1325;73557;-84
2023/03/27 11:55:31;;;;;;;;;;;;;;;19.21;42.28;98921.95;100573;1329;76300;-85
2023/03/27 11:58:16;;;;;;;;;;;;;;;19.21;42.37;98916.95;100734;1326;62391;-83
2023/03/27 12:00:44;;;;;;;;;;;;;;;19.21;42.45;98908.70;100724;1326;63354;-84
2023/03/27 12:03:29;;;;;;;;;;;;;;;19.22;42.44;98907.73;100678;1330;73418;-84
2023/03/27 12:05:57;;;;;;;;;;;;;;;19.22;42.57;98901.80;100827;1326;75249;-84
2023/03/27 12:08:30;;;;;;;;;;;;;;;19.22;42.58;98902.60;101016;1322;62653;-84
2023/03/27 12:10:56;;;;;;;;;;;;;;;19.22;42.55;98900.27;101418;1317;62279;-83
2023/03/27 12:13:21;;;;;;;;;;;;;;;19.21;42.50;98900.70;101653;1319;62209;-84
2023/03/27 12:16:05;;;;;;;;;;;;;;;19.21;42.58;98905.88;101456;1316;62494;-84
2023/03/27 12:18:49;;;;;;;;;;;;;;;19.21;42.55;98908.71;101299;1318;62486;-84
2023/03/27 12:21:18;;;;;;;;;;;;;;;19.21;42.68;98911.05;101591;1316;62088;-83
2023/03/27 12:23:58;;;;;;;;;;;;;;;19.21;42.62;98907.71;101476;1316;73565;-82
2023/03/27 12:26:30;;;;;;;;;;;;;;;19.20;42.72;98906.13;101501;1316;75531;-81
2023/03/27 12:29:14;;;;;;;;;;;;;;;19.20;42.70;98910.94;101873;1308;62108;-81
2023/03/27 12:31:45;;;;;;;;;;;;;;;19.21;42.76;98925.37;102448;1308;62278;-82
2023/03/27 12:34:12;;;;;;;;;;;;;;;19.20;42.86;98925.93;102757;1308;72498;-82
2023/03/27 12:36:39;;;;;;;;;;;;;;;19.20;42.72;98932.51;102977;1314;76233;-82
2023/03/27 12:39:11;;;;;;;;;;;;;;;19.21;42.85;98932.48;102713;1308;60832;-82
2023/03/27 12:41:37;;;;;;;;;;;;;;;19.21;42.84;98931.41;102562;1308;62108;-82
2023/03/27 12:44:03;;;;;;;;;;;;;;;19.21;42.92;98931.59;102550;1311;62223;-82
2023/03/27 12:46:32;;;;;;;;;;;;;;;19.21;42.93;98929.63;102371;1308;62228;-82
2023/03/27 12:49:09;;;;;;;;;;;;;;;19.21;42.98;98921.59;102298;1308;62989;-83